Time,TemperatureF,DewpointF,PressureIn,WindDirection,WindDirectionDegrees,WindSpeedMPH,WindSpeedGustMPH,Humidity,HourlyPrecipIn,Conditions,Clouds,dailyrainin,SolarRadiationWatts/m^2,SoftwareType,DateUTC
2013-07-15 00:01:00,64.8,62.7,30.18,SSE,152,0.0,0.0,93,0.00,CLR,,0.00,0.0,WeatherDisplay:10.37,2013-07-15 05:01:00,
2013-07-15 00:06:00,64.7,62.6,30.19,SSE,153,0.0,0.0,93,0.00,CLR,,0.00,0.0,WeatherDisplay:10.37,2013-07-15 05:06:00,
2013-07-15 00:11:00,64.6,62.5,30.19,SSE,152,0.0,0.0,93,0.00,CLR,,0.00,0.0,WeatherDisplay:10.37,2013-07-15 05:11:00,
2013-07-15 00:16:00,64.4,62.3,30.19,SSE,152,0.0,0.0,93,0.00,SCT,,0.00,0.0,WeatherDisplay:10.37,2013-07-15 05:16:00,
2013-07-15 00:21:00,64.3,62.2,30.19,SSE,153,0.0,0.0,93,0.00,SCT,,0.00,0.0,WeatherDisplay:10.37,2013-07-15 05:21:00,
2013-07-15 00:26:00,64.1,62.0,30.19,SSE,152,0.0,0.0,93,0.00,SCT,,0.00,0.0,WeatherDisplay:10.37,2013-07-15 05:26:00,
2013-07-15 00:31:00,64.0,61.9,30.19,SSE,153,0.0,0.0,93,0.00,SCT,,0.00,0.0,WeatherDisplay:10.37,2013-07-15 05:31:00,
2013-07-15 00:36:00,63.8,61.7,30.19,SSE,152,0.0,0.0,93,0.00,SCT,,0.00,0.0,WeatherDisplay:10.37,2013-07-15 05:36:00,
2013-07-15 00:41:00,63.8,61.7,30.19,SSE,152,0.0,0.0,93,0.00,SCT,,0.00,0.0,WeatherDisplay:10.37,2013-07-15 05:41:00,
2013-07-15 00:46:00,63.6,61.5,30.19,SSE,152,0.0,0.0,93,0.00,SCT,,0.00,0.0,WeatherDisplay:10.37,2013-07-15 05:46:00,
2013-07-15 00:51:00,63.4,61.6,30.19,SSE,152,0.0,0.0,94,0.00,SCT,,0.00,0.0,WeatherDisplay:10.37,2013-07-15 05:51:00,
2013-07-15 00:56:00,63.3,61.5,30.19,SSE,152,0.0,0.0,94,0.00,SCT,,0.00,0.0,WeatherDisplay:10.37,2013-07-15 05:56:00,
2013-07-15 01:01:00,63.2,61.4,30.19,SSE,152,0.0,0.0,94,0.00,OVC,,0.00,0.0,WeatherDisplay:10.37,2013-07-15 06:01:00,
2013-07-15 01:06:00,63.1,61.3,30.20,SSE,152,0.0,0.0,94,0.00,OVC,,0.00,0.0,WeatherDisplay:10.37,2013-07-15 06:06:00,
2013-07-15 01:11:00,63.0,61.2,30.20,SSE,152,0.0,0.0,94,0.00,OVC,,0.00,0.0,WeatherDisplay:10.37,2013-07-15 06:11:00,
2013-07-15 01:16:00,62.9,61.1,30.20,SSE,153,0.0,0.0,94,0.00,OVC,,0.00,0.0,WeatherDisplay:10.37,2013-07-15 06:16:00,
2013-07-15 01:21:00,62.8,61.0,30.20,SSE,152,0.0,0.0,94,0.00,OVC,,0.00,0.0,WeatherDisplay:10.37,2013-07-15 06:21:00,
2013-07-15 01:26:00,62.7,60.9,30.20,SSE,152,0.0,0.0,94,0.00,OVC,,0.00,0.0,WeatherDisplay:10.37,2013-07-15 06:26:00,
2013-07-15 01:31:00,62.5,60.7,30.20,SSE,153,0.0,0.0,94,0.00,OVC,,0.00,0.0,WeatherDisplay:10.37,2013-07-15 06:31:00,
2013-07-15 01:36:00,62.5,60.7,30.20,SSE,152,0.0,0.0,94,0.00,OVC,,0.00,0.0,WeatherDisplay:10.37,2013-07-15 06:36:00,
2013-07-15 01:41:00,62.3,60.6,30.20,SSE,153,0.0,0.0,94,0.00,OVC,,0.00,0.0,WeatherDisplay:10.37,2013-07-15 06:41:00,
2013-07-15 01:46:00,62.2,60.5,30.20,SSE,152,0.0,0.0,94,0.00,OVC,,0.00,0.0,WeatherDisplay:10.37,2013-07-15 06:46:00,
2013-07-15 01:51:00,62.1,60.4,30.20,SSE,152,0.0,0.0,94,0.00,OVC,,0.00,0.0,WeatherDisplay:10.37,2013-07-15 06:51:00,
2013-07-15 01:56:00,62.0,60.3,30.20,SSE,153,0.0,0.0,94,0.00,OVC,,0.00,0.0,WeatherDisplay:10.37,2013-07-15 06:56:00,
2013-07-15 02:01:00,61.8,60.1,30.20,SSE,152,0.0,0.0,94,0.00,OVC,,0.00,0.0,WeatherDisplay:10.37,2013-07-15 07:01:00,
2013-07-15 02:06:00,61.8,60.1,30.20,SSE,152,0.0,0.0,94,0.00,OVC,,0.00,0.0,WeatherDisplay:10.37,2013-07-15 07:06:00,
2013-07-15 02:11:00,61.7,60.0,30.20,SSE,152,0.0,0.0,94,0.00,OVC,,0.00,0.0,WeatherDisplay:10.37,2013-07-15 07:11:00,
2013-07-15 02:16:00,61.6,59.9,30.20,SSE,152,0.0,0.0,94,0.00,OVC,,0.00,0.0,WeatherDisplay:10.37,2013-07-15 07:16:00,
2013-07-15 02:21:00,61.5,59.8,30.20,SSE,152,0.0,0.0,94,0.00,OVC,,0.00,0.0,WeatherDisplay:10.37,2013-07-15 07:21:00,
2013-07-15 02:26:00,61.4,59.7,30.20,SSE,152,0.0,0.0,94,0.00,OVC,,0.00,0.0,WeatherDisplay:10.37,2013-07-15 07:26:00,
2013-07-15 02:31:00,61.3,59.6,30.20,SSE,152,0.0,0.0,94,0.00,OVC,,0.00,0.0,WeatherDisplay:10.37,2013-07-15 07:31:00,
2013-07-15 02:36:00,61.3,59.6,30.20,SSE,153,0.0,0.0,94,0.00,OVC,,0.00,0.0,WeatherDisplay:10.37,2013-07-15 07:36:00,
2013-07-15 02:41:00,61.1,59.4,30.20,SSE,152,0.0,0.0,94,0.00,OVC,,0.00,0.0,WeatherDisplay:10.37,2013-07-15 07:41:00,
2013-07-15 02:46:00,61.0,59.3,30.20,SSE,153,0.0,0.0,94,0.00,OVC,,0.00,0.0,WeatherDisplay:10.37,2013-07-15 07:46:00,
2013-07-15 02:51:00,60.9,59.2,30.20,SSE,152,0.0,0.0,94,0.00,OVC,,0.00,0.0,WeatherDisplay:10.37,2013-07-15 07:51:00,
2013-07-15 02:56:00,60.7,59.0,30.20,SSE,152,0.0,0.0,94,0.00,OVC,,0.00,0.0,WeatherDisplay:10.37,2013-07-15 07:56:00,
2013-07-15 03:01:00,60.6,58.9,30.20,SSE,152,0.0,0.0,94,0.00,OVC,,0.00,0.0,WeatherDisplay:10.37,2013-07-15 08:01:00,
2013-07-15 03:06:00,60.5,58.8,30.20,SSE,153,0.0,0.0,94,0.00,OVC,,0.00,0.0,WeatherDisplay:10.37,2013-07-15 08:06:00,
2013-07-15 03:12:00,60.4,58.7,30.20,SSE,152,0.0,0.0,94,0.00,OVC,,0.00,0.0,WeatherDisplay:10.37,2013-07-15 08:12:00,
2013-07-15 03:17:00,60.4,58.7,30.20,SSE,152,0.0,0.0,94,0.00,FEW,,0.00,0.0,WeatherDisplay:10.37,2013-07-15 08:17:00,
2013-07-15 03:22:00,60.2,58.5,30.20,SSE,152,0.0,0.0,94,0.00,FEW,,0.00,0.0,WeatherDisplay:10.37,2013-07-15 08:22:00,
2013-07-15 03:27:00,60.1,58.4,30.20,SSE,153,0.0,0.0,94,0.00,FEW,,0.00,0.0,WeatherDisplay:10.37,2013-07-15 08:27:00,
2013-07-15 03:32:00,60.0,58.3,30.20,SSE,153,0.0,0.0,94,0.00,SCT,,0.00,0.0,WeatherDisplay:10.37,2013-07-15 08:32:00,
2013-07-15 03:37:00,59.9,58.2,30.20,SSE,153,0.0,0.0,94,0.00,SCT,,0.00,0.0,WeatherDisplay:10.37,2013-07-15 08:37:00,
2013-07-15 03:42:00,59.8,58.1,30.20,SSE,152,0.0,0.0,94,0.00,SCT,,0.00,0.0,WeatherDisplay:10.37,2013-07-15 08:42:00,
2013-07-15 03:47:00,59.7,58.0,30.20,SSE,152,0.0,0.0,94,0.00,SCT,,0.00,0.0,WeatherDisplay:10.37,2013-07-15 08:47:00,
2013-07-15 03:52:00,59.6,57.9,30.20,SSE,152,0.0,0.0,94,0.00,SCT,,0.00,0.0,WeatherDisplay:10.37,2013-07-15 08:52:00,
2013-07-15 03:57:00,59.5,57.8,30.21,SSE,153,0.0,0.0,94,0.00,SCT,,0.00,0.0,WeatherDisplay:10.37,2013-07-15 08:57:00,
2013-07-15 04:02:00,59.4,57.7,30.20,SSE,152,0.0,0.0,94,0.00,-RA,,0.00,0.0,WeatherDisplay:10.37,2013-07-15 09:02:00,
2013-07-15 04:07:00,59.3,57.6,30.21,SSE,152,0.0,0.0,94,0.00,-RA,,0.00,0.0,WeatherDisplay:10.37,2013-07-15 09:07:00,
2013-07-15 04:12:00,59.2,57.5,30.20,SSE,152,0.0,0.0,94,0.00,-RA,,0.00,0.0,WeatherDisplay:10.37,2013-07-15 09:12:00,
2013-07-15 04:17:00,59.1,57.4,30.21,SSE,152,0.0,0.0,94,0.00,CLR,,0.00,0.0,WeatherDisplay:10.37,2013-07-15 09:17:00,
2013-07-15 04:22:00,58.9,57.2,30.21,SSE,153,0.0,0.0,94,0.00,CLR,,0.00,0.0,WeatherDisplay:10.37,2013-07-15 09:22:00,
2013-07-15 04:27:00,58.9,57.2,30.21,SSE,152,0.0,0.0,94,0.00,CLR,,0.00,0.0,WeatherDisplay:10.37,2013-07-15 09:27:00,
2013-07-15 04:32:00,58.8,57.4,30.20,SSE,152,0.0,0.0,95,0.00,CLR,,0.00,0.0,WeatherDisplay:10.37,2013-07-15 09:32:00,
2013-07-15 04:37:00,58.7,57.0,30.20,SSE,152,0.0,0.0,94,0.00,CLR,,0.00,0.0,WeatherDisplay:10.37,2013-07-15 09:37:00,
2013-07-15 04:42:00,58.6,56.9,30.21,SSE,152,0.0,0.0,94,0.00,CLR,,0.00,0.0,WeatherDisplay:10.37,2013-07-15 09:42:00,
2013-07-15 04:47:00,58.4,56.7,30.21,SSE,152,0.0,0.0,94,0.00,CLR,,0.00,0.0,WeatherDisplay:10.37,2013-07-15 09:47:00,
2013-07-15 04:52:00,58.3,56.6,30.21,SSE,152,0.0,0.0,94,0.00,CLR,,0.00,0.0,WeatherDisplay:10.37,2013-07-15 09:52:00,
2013-07-15 04:57:00,58.2,56.8,30.21,SSE,153,0.0,0.0,95,0.00,CLR,,0.00,0.0,WeatherDisplay:10.37,2013-07-15 09:57:00,
2013-07-15 05:02:00,58.1,56.7,30.21,SSE,152,0.0,0.0,95,0.00,CLR,,0.00,0.0,WeatherDisplay:10.37,2013-07-15 10:02:00,
2013-07-15 05:07:00,58.0,56.6,30.21,SSE,152,0.0,0.0,95,0.00,CLR,,0.00,0.0,WeatherDisplay:10.37,2013-07-15 10:07:00,
2013-07-15 05:12:00,57.9,56.5,30.21,SSE,152,0.0,0.0,95,0.00,CLR,,0.00,0.0,WeatherDisplay:10.37,2013-07-15 10:12:00,
2013-07-15 05:17:00,57.8,56.4,30.21,SSE,152,0.0,0.0,95,0.00,CLR,,0.00,0.0,WeatherDisplay:10.37,2013-07-15 10:17:00,
2013-07-15 05:22:00,57.7,56.3,30.21,SSE,152,0.0,0.0,95,0.00,CLR,,0.00,0.0,WeatherDisplay:10.37,2013-07-15 10:22:00,
2013-07-15 05:27:00,57.6,56.2,30.21,SSE,152,0.0,0.0,95,0.00,CLR,,0.00,0.0,WeatherDisplay:10.37,2013-07-15 10:27:00,
2013-07-15 05:32:00,57.5,56.1,30.21,SSE,152,0.0,0.0,95,0.00,CLR,,0.00,0.0,WeatherDisplay:10.37,2013-07-15 10:32:00,
2013-07-15 05:37:00,57.4,56.0,30.22,SSE,152,0.0,0.0,95,0.00,CLR,,0.00,0.0,WeatherDisplay:10.37,2013-07-15 10:37:00,
2013-07-15 05:42:00,57.4,56.0,30.22,SSE,153,0.0,0.0,95,0.00,CLR,,0.00,0.0,WeatherDisplay:10.37,2013-07-15 10:42:00,
2013-07-15 05:47:00,57.3,55.9,30.22,SSE,152,0.0,0.0,95,0.00,CLR,,0.00,5.0,WeatherDisplay:10.37,2013-07-15 10:47:00,
2013-07-15 05:52:00,57.3,55.9,30.22,SSE,153,0.0,0.0,95,0.00,CLR,,0.00,7.0,WeatherDisplay:10.37,2013-07-15 10:52:00,
2013-07-15 05:57:00,57.2,55.8,30.22,SSE,152,0.0,0.0,95,0.00,CLR,,0.00,9.0,WeatherDisplay:10.37,2013-07-15 10:57:00,
2013-07-15 06:02:00,57.2,55.8,30.22,SSE,152,0.0,0.0,95,0.00,CLR,,0.00,11.0,WeatherDisplay:10.37,2013-07-15 11:02:00,
2013-07-15 06:07:00,57.2,56.1,30.22,SSE,152,0.0,0.0,96,0.00,CLR,,0.00,11.0,WeatherDisplay:10.37,2013-07-15 11:07:00,
2013-07-15 06:12:00,57.2,56.1,30.22,SSE,152,0.0,0.0,96,0.00,CLR,,0.00,12.0,WeatherDisplay:10.37,2013-07-15 11:12:00,
2013-07-15 06:17:00,57.3,56.2,30.22,SSE,152,0.0,0.0,96,0.00,CLR,,0.00,14.0,WeatherDisplay:10.37,2013-07-15 11:17:00,
2013-07-15 06:22:00,57.3,56.2,30.22,SSE,152,0.0,0.0,96,0.00,CLR,,0.00,16.0,WeatherDisplay:10.37,2013-07-15 11:22:00,
2013-07-15 06:27:00,57.4,56.3,30.23,SSE,152,0.0,0.0,96,0.00,CLR,,0.00,18.0,WeatherDisplay:10.37,2013-07-15 11:27:00,
2013-07-15 06:32:00,57.5,56.4,30.23,SSE,153,0.0,0.0,96,0.00,CLR,,0.00,18.0,WeatherDisplay:10.37,2013-07-15 11:32:00,
2013-07-15 06:37:00,57.6,56.5,30.23,SSE,152,0.0,0.0,96,0.00,CLR,,0.00,19.0,WeatherDisplay:10.37,2013-07-15 11:37:00,
2013-07-15 06:42:00,57.7,56.6,30.23,SSE,152,0.0,0.0,96,0.00,CLR,,0.00,21.0,WeatherDisplay:10.37,2013-07-15 11:42:00,
2013-07-15 06:47:00,57.8,56.7,30.23,SSE,152,0.0,0.0,96,0.00,CLR,,0.00,23.0,WeatherDisplay:10.37,2013-07-15 11:47:00,
2013-07-15 06:52:00,57.9,56.8,30.23,SSE,152,0.0,0.0,96,0.00,CLR,,0.00,23.0,WeatherDisplay:10.37,2013-07-15 11:52:00,
2013-07-15 06:57:00,58.2,57.4,30.23,SSE,153,0.0,0.0,97,0.00,CLR,,0.00,23.0,WeatherDisplay:10.37,2013-07-15 11:57:00,
2013-07-15 07:02:00,58.4,57.6,30.23,SSE,152,0.0,0.0,97,0.00,FEW,,0.00,25.0,WeatherDisplay:10.37,2013-07-15 12:02:00,
2013-07-15 07:07:00,58.7,57.9,30.23,SSE,153,0.0,0.0,97,0.00,FEW,,0.00,25.0,WeatherDisplay:10.37,2013-07-15 12:07:00,
2013-07-15 07:12:00,59.0,58.2,30.23,SSE,152,0.0,0.0,97,0.00,FEW,,0.00,25.0,WeatherDisplay:10.37,2013-07-15 12:12:00,
2013-07-15 07:17:00,59.3,58.4,30.23,SSE,153,0.0,0.0,97,0.00,FEW,,0.00,26.0,WeatherDisplay:10.37,2013-07-15 12:17:00,
2013-07-15 07:22:00,59.7,58.8,30.23,SSE,153,0.0,0.0,97,0.00,FEW,,0.00,26.0,WeatherDisplay:10.37,2013-07-15 12:22:00,
2013-07-15 07:27:00,60.0,59.1,30.24,SSE,152,0.0,0.0,97,0.00,FEW,,0.00,33.0,WeatherDisplay:10.37,2013-07-15 12:27:00,
2013-07-15 07:32:00,60.4,59.8,30.24,SSE,153,0.0,0.0,98,0.00,FEW,,0.00,35.0,WeatherDisplay:10.37,2013-07-15 12:32:00,
2013-07-15 07:37:00,60.8,60.2,30.24,SSE,153,0.0,0.0,98,0.00,FEW,,0.00,33.0,WeatherDisplay:10.37,2013-07-15 12:37:00,
2013-07-15 07:42:00,61.3,60.7,30.24,SSE,153,0.0,0.0,98,0.00,FEW,,0.00,88.0,WeatherDisplay:10.37,2013-07-15 12:42:00,
2013-07-15 07:47:00,62.1,61.5,30.24,SSE,153,0.0,0.0,98,0.00,FEW,,0.00,42.0,WeatherDisplay:10.37,2013-07-15 12:47:00,
2013-07-15 07:52:00,63.0,62.4,30.24,SSE,157,0.0,0.0,98,0.00,FEW,,0.00,49.0,WeatherDisplay:10.37,2013-07-15 12:52:00,
2013-07-15 07:57:00,63.8,63.2,30.24,SSE,157,0.0,0.0,98,0.00,FEW,,0.00,88.0,WeatherDisplay:10.37,2013-07-15 12:57:00,
2013-07-15 08:02:00,64.5,63.9,30.24,SSE,157,0.0,0.0,98,0.00,FEW,,0.00,65.0,WeatherDisplay:10.37,2013-07-15 13:02:00,
2013-07-15 08:07:00,65.4,64.8,30.24,ESE,121,2.0,2.0,98,0.00,FEW,,0.00,49.0,WeatherDisplay:10.37,2013-07-15 13:07:00,
2013-07-15 08:12:00,66.1,65.5,30.24,South,179,3.5,3.5,98,0.00,FEW,,0.00,49.0,WeatherDisplay:10.37,2013-07-15 13:12:00,
2013-07-15 08:17:00,66.7,66.1,30.24,South,173,3.5,3.5,98,0.00,CLR,,0.00,51.0,WeatherDisplay:10.37,2013-07-15 13:17:00,
2013-07-15 08:22:00,67.3,66.7,30.24,South,172,1.1,1.1,98,0.00,CLR,,0.00,60.0,WeatherDisplay:10.37,2013-07-15 13:22:00,
2013-07-15 08:27:00,67.8,67.2,30.24,SSE,168,2.3,0.0,98,0.00,CLR,,0.00,79.0,WeatherDisplay:10.37,2013-07-15 13:27:00,
2013-07-15 08:32:00,68.2,66.7,30.24,SSE,168,1.1,1.1,95,0.00,CLR,,0.00,255.0,WeatherDisplay:10.37,2013-07-15 13:32:00,
2013-07-15 08:37:00,68.7,66.6,30.24,SE,137,3.5,3.5,93,0.00,CLR,,0.00,127.0,WeatherDisplay:10.37,2013-07-15 13:37:00,
2013-07-15 08:42:00,69.3,66.9,30.24,SW,234,2.3,2.3,92,0.00,CLR,,0.00,97.0,WeatherDisplay:10.37,2013-07-15 13:42:00,
2013-07-15 08:48:00,69.8,66.7,30.24,SSW,206,1.1,1.1,90,0.00,CLR,,0.00,56.0,WeatherDisplay:10.37,2013-07-15 13:48:00,
2013-07-15 08:53:00,70.5,67.1,30.24,SSW,200,2.3,2.3,89,0.00,CLR,,0.00,56.0,WeatherDisplay:10.37,2013-07-15 13:53:00,
2013-07-15 08:58:00,70.9,67.2,30.24,South,171,3.5,3.5,88,0.00,CLR,,0.00,56.0,WeatherDisplay:10.37,2013-07-15 13:58:00,
2013-07-15 09:03:00,71.4,67.3,30.24,SE,137,3.5,3.5,87,0.00,CLR,,0.00,93.0,WeatherDisplay:10.37,2013-07-15 14:03:00,
2013-07-15 09:08:00,71.9,67.1,30.24,SW,223,3.5,3.5,85,0.00,CLR,,0.00,86.0,WeatherDisplay:10.37,2013-07-15 14:08:00,
2013-07-15 09:13:00,72.4,67.6,30.24,SE,138,1.1,1.1,85,0.00,CLR,,0.00,111.0,WeatherDisplay:10.37,2013-07-15 14:13:00,
2013-07-15 09:18:00,72.9,67.8,30.24,SW,224,3.5,3.5,84,0.00,CLR,,0.00,63.0,WeatherDisplay:10.37,2013-07-15 14:18:00,
2013-07-15 09:23:00,73.6,68.1,30.24,South,175,4.6,4.6,83,0.00,CLR,,0.00,123.0,WeatherDisplay:10.37,2013-07-15 14:23:00,
2013-07-15 09:28:00,74.1,68.6,30.24,SE,126,2.3,2.3,83,0.00,CLR,,0.00,90.0,WeatherDisplay:10.37,2013-07-15 14:28:00,
2013-07-15 09:33:00,74.6,68.7,30.24,SW,220,1.1,1.1,82,0.00,CLR,,0.00,81.0,WeatherDisplay:10.37,2013-07-15 14:33:00,
2013-07-15 09:38:00,75.1,69.2,30.24,SSE,163,2.3,2.3,82,0.00,CLR,,0.00,63.0,WeatherDisplay:10.37,2013-07-15 14:38:00,
2013-07-15 09:43:00,75.5,68.5,30.23,SSW,206,3.5,3.5,79,0.00,CLR,,0.00,63.0,WeatherDisplay:10.37,2013-07-15 14:43:00,
2013-07-15 09:48:00,75.8,68.8,30.23,SW,215,3.5,3.5,79,0.00,CLR,,0.00,72.0,WeatherDisplay:10.37,2013-07-15 14:48:00,
2013-07-15 09:53:00,76.2,69.9,30.23,SSE,155,7.0,7.0,81,0.00,CLR,,0.00,69.0,WeatherDisplay:10.37,2013-07-15 14:53:00,
2013-07-15 09:59:00,76.4,69.0,30.23,East,85,3.5,3.5,78,0.00,CLR,,0.00,84.0,WeatherDisplay:10.37,2013-07-15 14:59:00,
2013-07-15 10:03:00,76.9,69.1,30.23,WSW,247,4.6,4.6,77,0.00,CLR,,0.00,107.0,WeatherDisplay:10.37,2013-07-15 15:03:00,
2013-07-15 10:09:00,77.2,68.7,30.23,SSW,197,2.3,2.3,75,0.00,CLR,,0.00,76.0,WeatherDisplay:10.37,2013-07-15 15:09:00,
2013-07-15 10:14:00,77.5,69.3,30.23,SSE,150,3.5,3.5,76,0.00,CLR,,0.00,76.0,WeatherDisplay:10.37,2013-07-15 15:14:00,
2013-07-15 10:19:00,77.8,69.2,30.23,SSW,206,4.6,4.6,75,0.00,CLR,,0.00,107.0,WeatherDisplay:10.37,2013-07-15 15:19:00,
2013-07-15 10:24:00,78.1,69.1,30.23,SSE,168,6.9,6.9,74,0.00,CLR,,0.00,237.0,WeatherDisplay:10.37,2013-07-15 15:24:00,
2013-07-15 10:30:00,78.3,68.9,30.23,SSE,167,4.0,4.0,73,0.00,CLR,,0.00,109.0,WeatherDisplay:10.37,2013-07-15 15:30:00,
2013-07-15 10:35:00,78.7,68.9,30.23,West,275,5.0,5.0,72,0.00,CLR,,0.00,116.0,WeatherDisplay:10.37,2013-07-15 15:35:00,
2013-07-15 10:40:00,79.2,69.4,30.23,SSE,155,1.1,1.1,72,0.00,CLR,,0.00,127.0,WeatherDisplay:10.37,2013-07-15 15:40:00,
2013-07-15 10:45:00,79.5,68.9,30.23,WSW,240,3.5,3.5,70,0.00,CLR,,0.00,225.0,WeatherDisplay:10.37,2013-07-15 15:45:00,
2013-07-15 10:50:00,79.6,68.5,30.23,SSE,147,6.0,6.0,69,0.00,CLR,,0.00,207.0,WeatherDisplay:10.37,2013-07-15 15:50:00,
2013-07-15 10:55:00,79.8,67.9,30.23,SSE,168,2.3,2.3,67,0.00,CLR,,0.00,642.0,WeatherDisplay:10.37,2013-07-15 15:55:00,
2013-07-15 11:00:00,80.3,69.2,30.23,WSW,242,2.0,2.0,69,0.00,CLR,,0.00,338.0,WeatherDisplay:10.37,2013-07-15 16:00:00,
2013-07-15 11:06:00,81.3,68.0,30.23,SSW,195,3.5,3.5,64,0.00,FEW,,0.00,824.0,WeatherDisplay:10.37,2013-07-15 16:06:00,
2013-07-15 11:11:00,81.4,67.1,30.23,SW,217,3.0,3.0,62,0.00,FEW,,0.00,105.0,WeatherDisplay:10.37,2013-07-15 16:11:00,
2013-07-15 11:17:00,81.0,67.7,30.23,South,187,3.5,3.5,64,0.00,FEW,,0.00,816.0,WeatherDisplay:10.37,2013-07-15 16:17:00,
2013-07-15 11:22:00,81.4,67.1,30.23,WSW,240,3.5,3.5,62,0.00,FEW,,0.00,826.0,WeatherDisplay:10.37,2013-07-15 16:22:00,
2013-07-15 11:27:00,82.1,66.8,30.23,SSE,167,4.6,4.6,60,0.00,FEW,,0.00,837.0,WeatherDisplay:10.37,2013-07-15 16:27:00,
2013-07-15 11:32:00,82.5,66.2,30.23,West,265,4.6,4.6,58,0.00,FEW,,0.00,847.0,WeatherDisplay:10.37,2013-07-15 16:32:00,
2013-07-15 11:37:00,82.9,67.1,30.23,SSW,198,1.1,1.1,59,0.00,FEW,,0.00,870.0,WeatherDisplay:10.37,2013-07-15 16:37:00,
2013-07-15 11:42:00,83.4,68.1,30.23,SSE,153,3.5,3.5,60,0.00,FEW,,0.00,865.0,WeatherDisplay:10.37,2013-07-15 16:42:00,
2013-07-15 11:47:00,83.6,67.3,30.23,SE,140,8.1,8.1,58,0.00,FEW,,0.00,861.0,WeatherDisplay:10.37,2013-07-15 16:47:00,
2013-07-15 11:52:00,84.0,66.1,30.23,SSE,160,4.6,4.6,55,0.00,FEW,,0.00,863.0,WeatherDisplay:10.37,2013-07-15 16:52:00,
2013-07-15 11:58:00,83.8,65.4,30.23,SE,144,4.6,4.6,54,0.00,FEW,,0.00,911.0,WeatherDisplay:10.37,2013-07-15 16:58:00,
2013-07-15 12:03:00,84.0,67.6,30.22,SSW,196,3.5,3.5,58,0.00,FEW,,0.00,889.0,WeatherDisplay:10.37,2013-07-15 17:03:00,
2013-07-15 12:08:00,84.4,66.5,30.22,WSW,244,4.6,4.6,55,0.00,FEW,,0.00,171.0,WeatherDisplay:10.37,2013-07-15 17:08:00,
2013-07-15 12:13:00,84.2,66.3,30.23,SSE,159,2.3,2.3,55,0.00,FEW,,0.00,171.0,WeatherDisplay:10.37,2013-07-15 17:13:00,
2013-07-15 12:19:00,83.8,65.4,30.23,WSW,241,6.0,6.0,54,0.00,BKN,,0.00,935.0,WeatherDisplay:10.37,2013-07-15 17:19:00,
2013-07-15 12:24:00,84.0,66.1,30.23,NW,306,4.6,4.6,55,0.00,BKN,,0.00,942.0,WeatherDisplay:10.37,2013-07-15 17:24:00,
2013-07-15 12:29:00,84.2,64.7,30.22,ESE,120,3.5,3.5,52,0.00,BKN,,0.00,185.0,WeatherDisplay:10.37,2013-07-15 17:29:00,
2013-07-15 12:34:00,84.1,65.1,30.23,South,182,4.0,4.0,53,0.00,BKN,,0.00,974.0,WeatherDisplay:10.37,2013-07-15 17:34:00,
2013-07-15 12:39:00,84.4,64.9,30.22,ESE,115,3.5,3.5,52,0.00,BKN,,0.00,944.0,WeatherDisplay:10.37,2013-07-15 17:39:00,
2013-07-15 12:44:00,84.7,66.7,30.22,SE,126,3.5,3.5,55,0.00,BKN,,0.00,939.0,WeatherDisplay:10.37,2013-07-15 17:44:00,
2013-07-15 12:50:00,84.4,65.9,30.22,SSE,163,3.5,3.5,54,0.00,BKN,,0.00,130.0,WeatherDisplay:10.37,2013-07-15 17:50:00,
2013-07-15 12:55:00,84.4,65.9,30.22,SSE,147,3.5,3.5,54,0.00,BKN,,0.00,958.0,WeatherDisplay:10.37,2013-07-15 17:55:00,
2013-07-15 13:00:00,84.7,66.2,30.22,South,175,2.0,2.0,54,0.00,BKN,,0.00,991.0,WeatherDisplay:10.37,2013-07-15 18:00:00,
2013-07-15 13:05:00,85.3,65.7,30.22,SW,223,4.6,4.6,52,0.00,BKN,,0.00,953.0,WeatherDisplay:10.37,2013-07-15 18:05:00,
2013-07-15 13:11:00,85.6,66.0,30.22,SW,217,10.4,10.4,52,0.00,BKN,,0.00,976.0,WeatherDisplay:10.37,2013-07-15 18:11:00,
2013-07-15 13:16:00,85.7,65.5,30.22,South,178,9.2,9.2,51,0.00,FEW,,0.00,988.0,WeatherDisplay:10.37,2013-07-15 18:16:00,
2013-07-15 13:21:00,85.8,66.1,30.22,SSE,149,4.6,4.6,52,0.00,FEW,,0.00,965.0,WeatherDisplay:10.37,2013-07-15 18:21:00,
2013-07-15 13:26:00,85.9,67.3,30.22,ESE,112,3.5,3.5,54,0.00,FEW,,0.00,970.0,WeatherDisplay:10.37,2013-07-15 18:26:00,
2013-07-15 13:31:00,86.2,64.8,30.22,ESE,116,5.8,5.8,49,0.00,FEW,,0.00,974.0,WeatherDisplay:10.37,2013-07-15 18:31:00,
2013-07-15 13:36:00,86.4,66.1,30.21,NW,306,5.8,5.8,51,0.00,FEW,,0.00,976.0,WeatherDisplay:10.37,2013-07-15 18:36:00,
2013-07-15 13:41:00,86.6,64.6,30.21,SE,126,3.5,3.5,48,0.00,FEW,,0.00,1000.0,WeatherDisplay:10.37,2013-07-15 18:41:00,
2013-07-15 13:46:00,87.0,66.1,30.22,South,175,3.5,3.5,50,0.00,FEW,,0.00,932.0,WeatherDisplay:10.37,2013-07-15 18:46:00,
2013-07-15 13:52:00,87.1,67.9,30.21,SSW,211,3.0,3.0,53,0.00,FEW,,0.00,947.0,WeatherDisplay:10.37,2013-07-15 18:52:00,
2013-07-15 13:57:00,87.4,66.5,30.21,SSE,167,8.1,8.1,50,0.00,FEW,,0.00,932.0,WeatherDisplay:10.37,2013-07-15 18:57:00,
2013-07-15 14:02:00,87.5,65.4,30.21,West,271,5.0,5.0,48,0.00,FEW,,0.00,990.0,WeatherDisplay:10.37,2013-07-15 19:02:00,
2013-07-15 14:07:00,86.7,65.8,30.21,SW,227,3.5,3.5,50,0.00,FEW,,0.00,960.0,WeatherDisplay:10.37,2013-07-15 19:07:00,
2013-07-15 14:12:00,86.7,65.3,30.21,SSW,195,6.9,6.9,49,0.00,FEW,,0.00,932.0,WeatherDisplay:10.37,2013-07-15 19:12:00,
2013-07-15 14:18:00,86.8,67.1,30.21,ESE,115,5.0,5.0,52,0.00,FEW,,0.00,404.0,WeatherDisplay:10.37,2013-07-15 19:18:00,
2013-07-15 14:23:00,86.7,64.7,30.21,ESE,113,3.5,3.5,48,0.00,FEW,,0.00,954.0,WeatherDisplay:10.37,2013-07-15 19:23:00,
2013-07-15 14:29:00,86.4,64.4,30.21,SE,126,3.5,3.5,48,0.00,FEW,,0.00,209.0,WeatherDisplay:10.37,2013-07-15 19:29:00,
2013-07-15 14:35:00,86.3,67.2,30.20,SE,134,3.5,3.5,53,0.00,FEW,,0.00,930.0,WeatherDisplay:10.37,2013-07-15 19:35:00,
2013-07-15 14:41:00,86.4,65.6,30.20,SSW,208,4.6,4.6,50,0.00,FEW,,0.00,909.0,WeatherDisplay:10.37,2013-07-15 19:41:00,
2013-07-15 14:46:00,86.7,64.7,30.20,South,169,6.9,6.9,48,0.00,FEW,,0.00,784.0,WeatherDisplay:10.37,2013-07-15 19:46:00,
2013-07-15 14:51:00,86.9,66.0,30.20,WSW,247,4.0,4.0,50,0.00,FEW,,0.00,925.0,WeatherDisplay:10.37,2013-07-15 19:51:00,
2013-07-15 14:56:00,87.1,65.0,30.19,NW,321,3.5,3.5,48,0.00,FEW,,0.00,865.0,WeatherDisplay:10.37,2013-07-15 19:56:00,
2013-07-15 15:01:00,87.4,67.6,30.20,South,187,2.3,2.3,52,0.00,FEW,,0.00,125.0,WeatherDisplay:10.37,2013-07-15 20:01:00,
2013-07-15 15:06:00,87.0,66.1,30.20,SSE,155,3.5,3.5,50,0.00,FEW,,0.00,965.0,WeatherDisplay:10.37,2013-07-15 20:06:00,
2013-07-15 15:11:00,86.5,64.5,30.19,SSE,165,2.3,2.3,48,0.00,FEW,,0.00,192.0,WeatherDisplay:10.37,2013-07-15 20:11:00,
2013-07-15 15:17:00,86.2,67.6,30.19,SSE,161,2.3,2.3,54,0.00,FEW,,0.00,888.0,WeatherDisplay:10.37,2013-07-15 20:17:00,
2013-07-15 15:22:00,86.3,64.9,30.19,SE,140,3.5,3.5,49,0.00,FEW,,0.00,895.0,WeatherDisplay:10.37,2013-07-15 20:22:00,
2013-07-15 15:27:00,86.7,68.6,30.19,East,82,4.6,4.6,55,0.00,FEW,,0.00,671.0,WeatherDisplay:10.37,2013-07-15 20:27:00,
2013-07-15 15:32:00,86.3,65.5,30.19,SE,145,5.0,5.0,50,0.00,FEW,,0.00,185.0,WeatherDisplay:10.37,2013-07-15 20:32:00,
2013-07-15 15:38:00,86.0,65.2,30.19,SSE,147,5.8,5.8,50,0.00,FEW,,0.00,861.0,WeatherDisplay:10.37,2013-07-15 20:38:00,
2013-07-15 15:43:00,85.8,64.4,30.19,SSE,159,5.8,5.8,49,0.00,FEW,,0.00,248.0,WeatherDisplay:10.37,2013-07-15 20:43:00,
2013-07-15 15:48:00,85.4,67.4,30.19,SW,222,5.8,0.0,55,0.00,FEW,,0.00,258.0,WeatherDisplay:10.37,2013-07-15 20:48:00,
2013-07-15 15:53:00,85.6,67.6,30.19,South,169,3.0,3.0,55,0.00,FEW,,0.00,803.0,WeatherDisplay:10.37,2013-07-15 20:53:00,
2013-07-15 15:59:00,86.2,66.5,30.19,SW,236,3.5,3.5,52,0.00,FEW,,0.00,780.0,WeatherDisplay:10.37,2013-07-15 20:59:00,
2013-07-15 16:04:00,86.7,68.6,30.19,ESE,123,3.5,3.5,55,0.00,FEW,,0.00,635.0,WeatherDisplay:10.37,2013-07-15 21:04:00,
2013-07-15 16:09:00,86.7,69.6,30.19,SE,146,4.0,4.0,57,0.00,FEW,,0.00,162.0,WeatherDisplay:10.37,2013-07-15 21:09:00,
2013-07-15 16:14:00,86.5,65.7,30.19,WSW,241,3.5,3.5,50,0.00,FEW,,0.00,733.0,WeatherDisplay:10.37,2013-07-15 21:14:00,
2013-07-15 16:19:00,87.1,68.4,30.18,SE,136,2.3,2.3,54,0.00,SCT,,0.00,703.0,WeatherDisplay:10.37,2013-07-15 21:19:00,
2013-07-15 16:24:00,87.4,64.7,30.19,West,267,5.8,5.8,47,0.00,SCT,,0.00,682.0,WeatherDisplay:10.37,2013-07-15 21:24:00,
2013-07-15 16:29:00,87.6,67.8,30.18,WSW,257,4.0,4.0,52,0.00,SCT,,0.00,661.0,WeatherDisplay:10.37,2013-07-15 21:29:00,
2013-07-15 16:35:00,87.7,65.6,30.18,SSE,155,3.5,3.5,48,0.00,SCT,,0.00,677.0,WeatherDisplay:10.37,2013-07-15 21:35:00,
2013-07-15 16:40:00,88.0,70.9,30.18,South,186,2.0,2.0,57,0.00,SCT,,0.00,671.0,WeatherDisplay:10.37,2013-07-15 21:40:00,
2013-07-15 16:45:00,87.7,69.0,30.18,SW,231,1.1,1.1,54,0.00,SCT,,0.00,619.0,WeatherDisplay:10.37,2013-07-15 21:45:00,
2013-07-15 16:51:00,87.4,66.5,30.18,SE,133,3.5,3.5,50,0.00,SCT,,0.00,624.0,WeatherDisplay:10.37,2013-07-15 21:51:00,
2013-07-15 16:56:00,87.6,68.4,30.18,SE,133,0.0,0.0,53,0.00,SCT,,0.00,587.0,WeatherDisplay:10.37,2013-07-15 21:56:00,
2013-07-15 17:01:00,87.7,65.6,30.18,South,181,9.2,9.2,48,0.00,FEW,,0.00,568.0,WeatherDisplay:10.37,2013-07-15 22:01:00,
2013-07-15 17:06:00,87.8,67.4,30.18,SE,136,1.1,1.1,51,0.00,FEW,,0.00,559.0,WeatherDisplay:10.37,2013-07-15 22:06:00,
2013-07-15 17:11:00,87.5,67.7,30.18,South,184,2.0,2.0,52,0.00,FEW,,0.00,543.0,WeatherDisplay:10.37,2013-07-15 22:11:00,
2013-07-15 17:16:00,87.3,69.7,30.18,SE,130,2.0,2.0,56,0.00,FEW,,0.00,102.0,WeatherDisplay:10.37,2013-07-15 22:16:00,
2013-07-15 17:21:00,86.9,66.0,30.18,SSE,149,4.6,4.6,50,0.00,FEW,,0.00,503.0,WeatherDisplay:10.37,2013-07-15 22:21:00,
2013-07-15 17:27:00,86.8,67.6,30.18,SSE,167,2.3,2.3,53,0.00,FEW,,0.00,497.0,WeatherDisplay:10.37,2013-07-15 22:27:00,
2013-07-15 17:32:00,86.6,65.7,30.18,WSW,257,3.5,3.5,50,0.00,FEW,,0.00,482.0,WeatherDisplay:10.37,2013-07-15 22:32:00,
2013-07-15 17:37:00,86.6,66.3,30.18,SE,126,2.0,2.0,51,0.00,FEW,,0.00,471.0,WeatherDisplay:10.37,2013-07-15 22:37:00,
2013-07-15 17:43:00,86.3,69.8,30.18,SSW,195,3.5,3.5,58,0.00,FEW,,0.00,301.0,WeatherDisplay:10.37,2013-07-15 22:43:00,
2013-07-15 17:48:00,85.7,65.5,30.18,SSW,210,3.5,3.5,51,0.00,FEW,,0.00,95.0,WeatherDisplay:10.37,2013-07-15 22:48:00,
2013-07-15 17:54:00,85.3,67.8,30.17,WSW,240,2.3,0.0,56,0.00,FEW,,0.00,67.0,WeatherDisplay:10.37,2013-07-15 22:54:00,
2013-07-15 17:59:00,84.9,65.9,30.17,West,279,3.5,3.5,53,0.00,FEW,,0.00,56.0,WeatherDisplay:10.37,2013-07-15 22:59:00,
2013-07-15 18:04:00,84.6,65.6,30.17,West,275,3.5,3.5,53,0.00,CLR,,0.00,56.0,WeatherDisplay:10.37,2013-07-15 23:04:00,
2013-07-15 18:09:00,84.2,65.8,30.17,SSE,148,1.1,1.3,54,0.00,CLR,,0.00,56.0,WeatherDisplay:10.37,2013-07-15 23:09:00,
2013-07-15 18:14:00,84.0,68.1,30.17,SSE,148,1.1,1.1,59,0.00,CLR,,0.00,62.0,WeatherDisplay:10.37,2013-07-15 23:14:00,
2013-07-15 18:20:00,83.8,69.9,30.17,SE,146,1.1,0.0,63,0.00,CLR,,0.00,54.0,WeatherDisplay:10.37,2013-07-15 23:20:00,
2013-07-15 18:25:00,83.2,66.4,30.17,WSW,240,2.0,2.0,57,0.00,CLR,,0.00,51.0,WeatherDisplay:10.37,2013-07-15 23:25:00,
2013-07-15 18:31:00,82.8,68.4,30.17,SW,230,1.0,0.0,62,0.00,CLR,,0.00,46.0,WeatherDisplay:10.37,2013-07-15 23:31:00,
2013-07-15 18:36:00,82.4,67.6,30.17,SW,221,2.3,2.3,61,0.00,CLR,,0.00,44.0,WeatherDisplay:10.37,2013-07-15 23:36:00,
2013-07-15 18:41:00,82.0,68.2,30.17,SW,221,0.0,0.0,63,0.00,CLR,,0.00,42.0,WeatherDisplay:10.37,2013-07-15 23:41:00,
2013-07-15 18:47:00,81.5,67.2,30.17,SW,221,0.0,0.0,62,0.00,CLR,,0.00,40.0,WeatherDisplay:10.37,2013-07-15 23:47:00,
2013-07-15 18:52:00,81.0,69.0,30.17,SW,221,1.1,1.1,67,0.00,CLR,,0.00,40.0,WeatherDisplay:10.37,2013-07-15 23:52:00,
2013-07-15 18:57:00,80.5,69.0,30.17,SW,221,1.1,1.1,68,0.00,CLR,,0.00,39.0,WeatherDisplay:10.37,2013-07-15 23:57:00,
2013-07-15 19:03:00,80.0,69.7,30.17,WSW,252,0.0,0.0,71,0.00,FEW,,0.00,35.0,WeatherDisplay:10.37,2013-07-16 00:03:00,
2013-07-15 19:08:00,79.4,69.2,30.16,WSW,252,0.0,0.0,71,0.00,FEW,,0.00,33.0,WeatherDisplay:10.37,2013-07-16 00:08:00,
2013-07-15 19:14:00,78.8,69.0,30.16,WSW,252,0.0,0.0,72,0.00,FEW,,0.00,32.0,WeatherDisplay:10.37,2013-07-16 00:14:00,
2013-07-15 19:19:00,78.4,69.0,30.16,WSW,252,0.0,0.0,73,0.00,FEW,,0.00,32.0,WeatherDisplay:10.37,2013-07-16 00:19:00,
2013-07-15 19:25:00,78.0,68.6,30.16,WSW,252,0.0,0.0,73,0.00,FEW,,0.00,30.0,WeatherDisplay:10.37,2013-07-16 00:25:00,
2013-07-15 19:30:00,77.8,68.8,30.16,WSW,252,0.0,0.0,74,0.00,FEW,,0.00,28.0,WeatherDisplay:10.37,2013-07-16 00:30:00,
2013-07-15 19:36:00,77.7,69.1,30.16,WSW,252,0.0,0.0,75,0.00,FEW,,0.00,25.0,WeatherDisplay:10.37,2013-07-16 00:36:00,
2013-07-15 19:41:00,77.5,68.9,30.17,WSW,252,0.0,0.0,75,0.00,FEW,,0.00,23.0,WeatherDisplay:10.37,2013-07-16 00:41:00,
2013-07-15 19:46:00,77.3,69.1,30.17,WSW,252,0.0,0.0,76,0.00,FEW,,0.00,21.0,WeatherDisplay:10.37,2013-07-16 00:46:00,
2013-07-15 19:51:00,77.1,68.9,30.17,WSW,252,0.0,0.0,76,0.00,FEW,,0.00,19.0,WeatherDisplay:10.37,2013-07-16 00:51:00,
2013-07-15 19:57:00,76.9,68.8,30.17,WSW,252,0.0,0.0,76,0.00,FEW,,0.00,18.0,WeatherDisplay:10.37,2013-07-16 00:57:00,
2013-07-15 20:02:00,76.7,69.3,30.17,WSW,252,0.0,0.0,78,0.00,CLR,,0.00,16.0,WeatherDisplay:10.37,2013-07-16 01:02:00,
2013-07-15 20:08:00,76.4,69.4,30.17,WSW,252,0.0,0.0,79,0.00,CLR,,0.00,12.0,WeatherDisplay:10.37,2013-07-16 01:08:00,
2013-07-15 20:14:00,76.2,69.2,30.17,WSW,252,0.0,0.0,79,0.00,CLR,,0.00,11.0,WeatherDisplay:10.37,2013-07-16 01:14:00,
2013-07-15 20:20:00,75.9,69.6,30.17,WSW,252,0.0,0.0,81,0.00,CLR,,0.00,9.0,WeatherDisplay:10.37,2013-07-16 01:20:00,
2013-07-15 20:25:00,75.8,69.6,30.17,WSW,252,0.0,0.0,81,0.00,CLR,,0.00,7.0,WeatherDisplay:10.37,2013-07-16 01:25:00,
2013-07-15 20:30:00,75.6,69.4,30.17,WSW,252,0.0,0.0,81,0.00,CLR,,0.00,5.0,WeatherDisplay:10.37,2013-07-16 01:30:00,
2013-07-15 20:36:00,75.3,69.4,30.17,WSW,252,0.0,0.0,82,0.00,CLR,,0.00,0.0,WeatherDisplay:10.37,2013-07-16 01:36:00,
2013-07-15 20:42:00,74.9,69.0,30.17,WSW,252,0.0,0.0,82,0.00,CLR,,0.00,0.0,WeatherDisplay:10.37,2013-07-16 01:42:00,
2013-07-15 20:47:00,74.7,69.2,30.17,WSW,252,0.0,0.0,83,0.00,CLR,,0.00,0.0,WeatherDisplay:10.37,2013-07-16 01:47:00,
2013-07-15 20:53:00,74.3,68.8,30.17,WSW,252,0.0,0.0,83,0.00,CLR,,0.00,0.0,WeatherDisplay:10.37,2013-07-16 01:53:00,
2013-07-15 20:58:00,74.0,68.9,30.17,WSW,252,0.0,0.0,84,0.00,CLR,,0.00,0.0,WeatherDisplay:10.37,2013-07-16 01:58:00,
2013-07-15 21:03:00,73.6,68.5,30.17,WSW,252,0.0,0.0,84,0.00,CLR,,0.00,0.0,WeatherDisplay:10.37,2013-07-16 02:03:00,
2013-07-15 21:09:00,73.4,68.6,30.17,WSW,252,0.0,0.0,85,0.00,CLR,,0.00,0.0,WeatherDisplay:10.37,2013-07-16 02:09:00,
2013-07-15 21:14:00,73.1,68.7,30.17,WSW,252,0.0,0.0,86,0.00,CLR,,0.00,0.0,WeatherDisplay:10.37,2013-07-16 02:14:00,
2013-07-15 21:20:00,72.9,68.5,30.17,WSW,252,0.0,0.0,86,0.00,CLR,,0.00,0.0,WeatherDisplay:10.37,2013-07-16 02:20:00,
2013-07-15 21:25:00,72.5,68.1,30.17,WSW,252,0.0,0.0,86,0.00,CLR,,0.00,0.0,WeatherDisplay:10.37,2013-07-16 02:25:00,
2013-07-15 21:30:00,72.2,68.1,30.17,WSW,252,0.0,0.0,87,0.00,CLR,,0.00,0.0,WeatherDisplay:10.37,2013-07-16 02:30:00,
2013-07-15 21:35:00,71.9,67.8,30.17,WSW,252,0.0,0.0,87,0.00,CLR,,0.00,0.0,WeatherDisplay:10.37,2013-07-16 02:35:00,
2013-07-15 21:41:00,71.5,67.8,30.17,WSW,252,0.0,0.0,88,0.00,CLR,,0.00,0.0,WeatherDisplay:10.37,2013-07-16 02:41:00,
2013-07-15 21:46:00,71.2,67.5,30.17,WSW,252,0.0,0.0,88,0.00,CLR,,0.00,0.0,WeatherDisplay:10.37,2013-07-16 02:46:00,
2013-07-15 21:52:00,71.0,67.6,30.18,WSW,252,0.0,0.0,89,0.00,CLR,,0.00,0.0,WeatherDisplay:10.37,2013-07-16 02:52:00,
2013-07-15 21:57:00,70.7,67.3,30.17,WSW,252,0.0,0.0,89,0.00,CLR,,0.00,0.0,WeatherDisplay:10.37,2013-07-16 02:57:00,
2013-07-15 22:02:00,70.4,67.0,30.17,WSW,252,0.0,0.0,89,0.00,CLR,,0.00,0.0,WeatherDisplay:10.37,2013-07-16 03:02:00,
2013-07-15 22:07:00,70.2,67.1,30.18,WSW,252,0.0,0.0,90,0.00,CLR,,0.00,0.0,WeatherDisplay:10.37,2013-07-16 03:07:00,
2013-07-15 22:12:00,69.9,66.8,30.17,WSW,252,0.0,0.0,90,0.00,CLR,,0.00,0.0,WeatherDisplay:10.37,2013-07-16 03:12:00,
2013-07-15 22:17:00,69.7,66.6,30.18,WSW,252,0.0,0.0,90,0.00,CLR,,0.00,0.0,WeatherDisplay:10.37,2013-07-16 03:17:00,
2013-07-15 22:22:00,69.5,66.4,30.18,WSW,252,0.0,0.0,90,0.00,CLR,,0.00,0.0,WeatherDisplay:10.37,2013-07-16 03:22:00,
2013-07-15 22:27:00,69.3,66.6,30.18,WSW,252,0.0,0.0,91,0.00,CLR,,0.00,0.0,WeatherDisplay:10.37,2013-07-16 03:27:00,
2013-07-15 22:32:00,69.2,66.5,30.17,WSW,252,0.0,0.0,91,0.00,CLR,,0.00,0.0,WeatherDisplay:10.37,2013-07-16 03:32:00,
2013-07-15 22:38:00,69.0,66.3,30.17,WSW,252,0.0,0.0,91,0.00,CLR,,0.00,0.0,WeatherDisplay:10.37,2013-07-16 03:38:00,
2013-07-15 22:44:00,68.9,66.2,30.17,WSW,252,0.0,0.0,91,0.00,CLR,,0.00,0.0,WeatherDisplay:10.37,2013-07-16 03:44:00,
2013-07-15 22:49:00,68.8,66.4,30.17,WSW,252,0.0,0.0,92,0.00,CLR,,0.00,0.0,WeatherDisplay:10.37,2013-07-16 03:49:00,
2013-07-15 22:54:00,68.5,66.1,30.17,WSW,252,0.0,0.0,92,0.00,CLR,,0.00,0.0,WeatherDisplay:10.37,2013-07-16 03:54:00,
2013-07-15 22:59:00,68.4,66.0,30.17,WSW,252,0.0,0.0,92,0.00,CLR,,0.00,0.0,WeatherDisplay:10.37,2013-07-16 03:59:00,
2013-07-15 23:01:00,68.3,65.9,30.17,WSW,252,0.0,0.0,92,0.00,CLR,,0.00,0.0,WeatherDisplay:10.37,2013-07-16 04:01:00,
2013-07-15 23:06:00,68.2,65.8,30.17,WSW,252,0.0,0.0,92,0.00,CLR,,0.00,0.0,WeatherDisplay:10.37,2013-07-16 04:06:00,
2013-07-15 23:11:00,68.1,65.7,30.17,WSW,252,0.0,0.0,92,0.00,CLR,,0.00,0.0,WeatherDisplay:10.37,2013-07-16 04:11:00,
2013-07-15 23:16:00,68.0,65.6,30.17,WSW,252,0.0,0.0,92,0.00,CLR,,0.00,0.0,WeatherDisplay:10.37,2013-07-16 04:16:00,
2013-07-15 23:21:00,67.9,65.5,30.17,WSW,252,0.0,0.0,92,0.00,CLR,,0.00,0.0,WeatherDisplay:10.37,2013-07-16 04:21:00,
2013-07-15 23:26:00,67.8,65.4,30.17,WSW,252,0.0,0.0,92,0.00,CLR,,0.00,0.0,WeatherDisplay:10.37,2013-07-16 04:26:00,
2013-07-15 23:31:00,67.7,65.3,30.18,WSW,252,0.0,0.0,92,0.00,CLR,,0.00,0.0,WeatherDisplay:10.37,2013-07-16 04:31:00,
2013-07-15 23:36:00,67.6,65.2,30.18,WSW,252,0.0,0.0,92,0.00,CLR,,0.00,0.0,WeatherDisplay:10.37,2013-07-16 04:36:00,
2013-07-15 23:41:00,67.5,65.4,30.18,WSW,252,0.0,0.0,93,0.00,CLR,,0.00,0.0,WeatherDisplay:10.37,2013-07-16 04:41:00,
2013-07-15 23:46:00,67.3,65.2,30.18,WSW,252,0.0,0.0,93,0.00,CLR,,0.00,0.0,WeatherDisplay:10.37,2013-07-16 04:46:00,
2013-07-15 23:51:00,67.2,65.1,30.18,WSW,252,0.0,0.0,93,0.00,CLR,,0.00,0.0,WeatherDisplay:10.37,2013-07-16 04:51:00,
2013-07-15 23:56:00,67.0,64.9,30.18,WSW,252,0.0,0.0,93,0.00,CLR,,0.00,0.0,WeatherDisplay:10.37,2013-07-16 04:56:00,